sensor_id;sensor_type;location;lat;lon;timestamp;P1;P2;P0
65973;PMS5003;52729;54.906;73.316;2022-08-14T00:01:45;0.00;0.00;0.00
65973;PMS5003;52729;54.906;73.316;2022-08-14T00:04:46;0.50;0.00;0.00
65973;PMS5003;52729;54.906;73.316;2022-08-14T00:07:52;2.50;1.00;0.00
65973;PMS5003;52729;54.906;73.316;2022-08-14T00:10:54;0.25;0.25;0.00
65973;PMS5003;52729;54.906;73.316;2022-08-14T00:13:55;1.00;0.75;0.00
65973;PMS5003;52729;54.906;73.316;2022-08-14T00:16:56;0.75;0.75;0.00
65973;PMS5003;52729;54.906;73.316;2022-08-14T00:20:03;0.25;0.25;0.00
65973;PMS5003;52729;54.906;73.316;2022-08-14T00:23:05;0.00;0.00;0.00
65973;PMS5003;52729;54.906;73.316;2022-08-14T00:26:06;0.00;0.00;0.00
65973;PMS5003;52729;54.906;73.316;2022-08-14T00:29:08;0.00;0.00;0.00
65973;PMS5003;52729;54.906;73.316;2022-08-14T00:32:13;0.00;0.00;0.00
65973;PMS5003;52729;54.906;73.316;2022-08-14T00:35:19;0.00;0.00;0.00
65973;PMS5003;52729;54.906;73.316;2022-08-14T00:38:20;0.00;0.00;0.00
65973;PMS5003;52729;54.906;73.316;2022-08-14T00:41:21;0.00;0.00;0.00
65973;PMS5003;52729;54.906;73.316;2022-08-14T00:44:32;0.00;0.00;0.00
65973;PMS5003;52729;54.906;73.316;2022-08-14T00:47:37;1.50;1.50;0.00
65973;PMS5003;52729;54.906;73.316;2022-08-14T00:50:43;0.00;0.00;0.00
65973;PMS5003;52729;54.906;73.316;2022-08-14T00:53:45;1.00;1.00;0.00
65973;PMS5003;52729;54.906;73.316;2022-08-14T00:56:50;0.00;0.00;0.00
65973;PMS5003;52729;54.906;73.316;2022-08-14T01:00:02;0.00;0.00;0.00
65973;PMS5003;52729;54.906;73.316;2022-08-14T01:03:08;0.00;0.00;0.00
65973;PMS5003;52729;54.906;73.316;2022-08-14T01:06:09;0.00;0.00;0.00
65973;PMS5003;52729;54.906;73.316;2022-08-14T01:09:11;0.00;0.00;0.00
65973;PMS5003;52729;54.906;73.316;2022-08-14T01:12:22;0.00;0.00;0.00
65973;PMS5003;52729;54.906;73.316;2022-08-14T01:15:33;0.00;0.00;0.00
65973;PMS5003;52729;54.906;73.316;2022-08-14T01:18:34;0.00;0.00;0.00
65973;PMS5003;52729;54.906;73.316;2022-08-14T01:21:54;0.00;0.00;0.00
65973;PMS5003;52729;54.906;73.316;2022-08-14T01:25:00;0.00;0.00;0.00
65973;PMS5003;52729;54.906;73.316;2022-08-14T01:28:01;0.00;0.00;0.00
65973;PMS5003;52729;54.906;73.316;2022-08-14T01:31:06;0.25;0.00;0.00
65973;PMS5003;52729;54.906;73.316;2022-08-14T01:34:08;1.00;0.00;0.00
65973;PMS5003;52729;54.906;73.316;2022-08-14T01:37:09;0.00;0.00;0.00
65973;PMS5003;52729;54.906;73.316;2022-08-14T01:40:23;0.00;0.00;0.00
65973;PMS5003;52729;54.906;73.316;2022-08-14T01:43:31;0.00;0.00;0.00
65973;PMS5003;52729;54.906;73.316;2022-08-14T01:46:42;0.00;0.00;0.00
65973;PMS5003;52729;54.906;73.316;2022-08-14T01:49:57;1.00;0.00;0.00
65973;PMS5003;52729;54.906;73.316;2022-08-14T01:52:58;1.00;1.00;0.00
65973;PMS5003;52729;54.906;73.316;2022-08-14T01:56:04;1.00;1.00;0.00
65973;PMS5003;52729;54.906;73.316;2022-08-14T01:59:07;0.00;0.00;0.00
65973;PMS5003;52729;54.906;73.316;2022-08-14T02:02:12;0.00;0.00;0.00
65973;PMS5003;52729;54.906;73.316;2022-08-14T02:05:14;0.00;0.00;0.00
65973;PMS5003;52729;54.906;73.316;2022-08-14T02:08:17;0.75;0.00;0.00
65973;PMS5003;52729;54.906;73.316;2022-08-14T02:11:18;1.00;0.00;0.00
65973;PMS5003;52729;54.906;73.316;2022-08-14T02:14:28;2.00;0.00;0.00
65973;PMS5003;52729;54.906;73.316;2022-08-14T02:17:31;0.25;0.00;0.00
65973;PMS5003;52729;54.906;73.316;2022-08-14T02:20:33;0.00;0.00;0.00
65973;PMS5003;52729;54.906;73.316;2022-08-14T02:23:34;0.00;0.00;0.00
65973;PMS5003;52729;54.906;73.316;2022-08-14T02:26:36;0.00;0.00;0.00
65973;PMS5003;52729;54.906;73.316;2022-08-14T02:29:39;0.00;0.00;0.00
65973;PMS5003;52729;54.906;73.316;2022-08-14T02:32:44;0.00;0.00;0.00
65973;PMS5003;52729;54.906;73.316;2022-08-14T02:35:45;0.00;0.00;0.00
65973;PMS5003;52729;54.906;73.316;2022-08-14T02:38:46;0.00;0.00;0.00
65973;PMS5003;52729;54.906;73.316;2022-08-14T02:41:55;0.00;0.00;0.00
65973;PMS5003;52729;54.906;73.316;2022-08-14T02:45:01;0.00;0.00;0.00
65973;PMS5003;52729;54.906;73.316;2022-08-14T02:48:03;1.00;0.00;0.00
65973;PMS5003;52729;54.906;73.316;2022-08-14T02:51:12;0.00;0.00;0.00
65973;PMS5003;52729;54.906;73.316;2022-08-14T02:54:24;0.00;0.00;0.00
65973;PMS5003;52729;54.906;73.316;2022-08-14T02:57:31;2.00;0.00;0.00
65973;PMS5003;52729;54.906;73.316;2022-08-14T03:00:32;2.00;0.00;0.00
65973;PMS5003;52729;54.906;73.316;2022-08-14T03:03:45;1.00;1.00;0.00
65973;PMS5003;52729;54.906;73.316;2022-08-14T03:06:46;0.00;0.00;0.00
65973;PMS5003;52729;54.906;73.316;2022-08-14T03:09:53;0.25;0.25;0.00
65973;PMS5003;52729;54.906;73.316;2022-08-14T03:12:54;2.00;2.00;0.00
65973;PMS5003;52729;54.906;73.316;2022-08-14T03:15:56;2.00;1.00;0.00
65973;PMS5003;52729;54.906;73.316;2022-08-14T03:19:04;1.00;1.00;0.00
65973;PMS5003;52729;54.906;73.316;2022-08-14T03:22:06;1.50;0.50;0.00
65973;PMS5003;52729;54.906;73.316;2022-08-14T03:25:07;1.00;1.00;0.00
65973;PMS5003;52729;54.906;73.316;2022-08-14T03:28:10;0.00;0.00;0.00
65973;PMS5003;52729;54.906;73.316;2022-08-14T03:31:17;0.00;0.00;0.00
65973;PMS5003;52729;54.906;73.316;2022-08-14T03:34:28;0.00;0.00;0.00
65973;PMS5003;52729;54.906;73.316;2022-08-14T03:37:30;0.00;0.00;0.00
65973;PMS5003;52729;54.906;73.316;2022-08-14T03:40:38;0.00;0.00;0.00
65973;PMS5003;52729;54.906;73.316;2022-08-14T03:43:40;1.00;1.00;0.00
65973;PMS5003;52729;54.906;73.316;2022-08-14T03:46:46;0.00;0.00;0.00
65973;PMS5003;52729;54.906;73.316;2022-08-14T03:49:47;0.00;0.00;0.00
65973;PMS5003;52729;54.906;73.316;2022-08-14T03:52:48;0.00;0.00;0.00
65973;PMS5003;52729;54.906;73.316;2022-08-14T03:55:49;1.00;1.00;0.00
65973;PMS5003;52729;54.906;73.316;2022-08-14T03:58:51;1.00;1.00;0.00
65973;PMS5003;52729;54.906;73.316;2022-08-14T04:01:57;0.00;0.00;0.00
65973;PMS5003;52729;54.906;73.316;2022-08-14T04:04:58;0.00;0.00;0.00
65973;PMS5003;52729;54.906;73.316;2022-08-14T04:08:01;3.00;1.00;0.00
65973;PMS5003;52729;54.906;73.316;2022-08-14T04:11:02;0.50;0.50;0.00
65973;PMS5003;52729;54.906;73.316;2022-08-14T04:14:04;0.00;0.00;0.00
65973;PMS5003;52729;54.906;73.316;2022-08-14T04:17:05;2.00;1.00;0.00
65973;PMS5003;52729;54.906;73.316;2022-08-14T04:20:07;2.00;2.00;0.00
65973;PMS5003;52729;54.906;73.316;2022-08-14T04:23:20;0.00;0.00;0.00
65973;PMS5003;52729;54.906;73.316;2022-08-14T04:26:22;0.00;0.00;0.00
65973;PMS5003;52729;54.906;73.316;2022-08-14T04:29:24;0.50;0.50;0.00
65973;PMS5003;52729;54.906;73.316;2022-08-14T04:32:35;0.00;0.00;0.00
65973;PMS5003;52729;54.906;73.316;2022-08-14T04:35:41;0.00;0.00;0.00
65973;PMS5003;52729;54.906;73.316;2022-08-14T04:38:42;0.00;0.00;0.00
65973;PMS5003;52729;54.906;73.316;2022-08-14T04:42:01;0.00;0.00;0.00
65973;PMS5003;52729;54.906;73.316;2022-08-14T04:45:20;0.50;0.00;0.00
65973;PMS5003;52729;54.906;73.316;2022-08-14T04:48:23;0.00;0.00;0.00
65973;PMS5003;52729;54.906;73.316;2022-08-14T04:51:26;0.00;0.00;0.00
65973;PMS5003;52729;54.906;73.316;2022-08-14T04:54:28;1.50;1.50;0.00
65973;PMS5003;52729;54.906;73.316;2022-08-14T04:57:29;0.00;0.00;0.00
65973;PMS5003;52729;54.906;73.316;2022-08-14T05:00:30;0.00;0.00;0.00
65973;PMS5003;52729;54.906;73.316;2022-08-14T05:03:33;0.00;0.00;0.00
65973;PMS5003;52729;54.906;73.316;2022-08-14T05:06:46;0.00;0.00;0.00
65973;PMS5003;52729;54.906;73.316;2022-08-14T05:09:47;0.00;0.00;0.00
65973;PMS5003;52729;54.906;73.316;2022-08-14T05:12:48;0.00;0.00;0.00
65973;PMS5003;52729;54.906;73.316;2022-08-14T05:15:52;0.00;0.00;0.00
65973;PMS5003;52729;54.906;73.316;2022-08-14T05:19:03;0.00;0.00;0.00
65973;PMS5003;52729;54.906;73.316;2022-08-14T05:22:04;0.00;0.00;0.00
65973;PMS5003;52729;54.906;73.316;2022-08-14T05:25:06;0.00;0.00;0.00
65973;PMS5003;52729;54.906;73.316;2022-08-14T05:28:11;0.00;0.00;0.00
65973;PMS5003;52729;54.906;73.316;2022-08-14T05:31:22;0.00;0.00;0.00
65973;PMS5003;52729;54.906;73.316;2022-08-14T05:34:28;0.00;0.00;0.00
65973;PMS5003;52729;54.906;73.316;2022-08-14T05:37:29;0.00;0.00;0.00
65973;PMS5003;52729;54.906;73.316;2022-08-14T05:40:30;0.00;0.00;0.00
65973;PMS5003;52729;54.906;73.316;2022-08-14T05:43:37;0.00;0.00;0.00
65973;PMS5003;52729;54.906;73.316;2022-08-14T05:46:40;0.00;0.00;0.00
65973;PMS5003;52729;54.906;73.316;2022-08-14T05:49:40;0.00;0.00;0.00
65973;PMS5003;52729;54.906;73.316;2022-08-14T05:52:41;0.00;0.00;0.00
65973;PMS5003;52729;54.906;73.316;2022-08-14T05:55:48;0.00;0.00;0.00
65973;PMS5003;52729;54.906;73.316;2022-08-14T05:58:59;0.00;0.00;0.00
65973;PMS5003;52729;54.906;73.316;2022-08-14T06:02:00;1.75;1.75;0.00
65973;PMS5003;52729;54.906;73.316;2022-08-14T06:05:06;0.50;0.50;0.00
65973;PMS5003;52729;54.906;73.316;2022-08-14T06:08:15;0.00;0.00;0.00
65973;PMS5003;52729;54.906;73.316;2022-08-14T06:11:16;0.00;0.00;0.00
65973;PMS5003;52729;54.906;73.316;2022-08-14T06:14:17;0.00;0.00;0.00
65973;PMS5003;52729;54.906;73.316;2022-08-14T06:17:19;0.00;0.00;0.00
65973;PMS5003;52729;54.906;73.316;2022-08-14T06:20:30;0.25;0.25;0.00
65973;PMS5003;52729;54.906;73.316;2022-08-14T06:23:36;0.00;0.00;0.00
65973;PMS5003;52729;54.906;73.316;2022-08-14T06:26:37;0.00;0.00;0.00
65973;PMS5003;52729;54.906;73.316;2022-08-14T06:29:39;0.00;0.00;0.00
65973;PMS5003;52729;54.906;73.316;2022-08-14T06:32:45;0.00;0.00;0.00
65973;PMS5003;52729;54.906;73.316;2022-08-14T06:35:47;0.00;0.00;0.00
65973;PMS5003;52729;54.906;73.316;2022-08-14T06:38:52;0.00;0.00;0.00
65973;PMS5003;52729;54.906;73.316;2022-08-14T06:41:53;1.00;0.00;0.00
65973;PMS5003;52729;54.906;73.316;2022-08-14T06:44:54;0.00;0.00;0.00
65973;PMS5003;52729;54.906;73.316;2022-08-14T06:47:58;1.00;0.00;0.00
65973;PMS5003;52729;54.906;73.316;2022-08-14T06:51:00;0.00;0.00;0.00
65973;PMS5003;52729;54.906;73.316;2022-08-14T06:54:02;1.00;0.00;0.00
65973;PMS5003;52729;54.906;73.316;2022-08-14T06:57:03;2.00;1.75;0.00
65973;PMS5003;52729;54.906;73.316;2022-08-14T07:00:05;1.00;0.00;0.00
65973;PMS5003;52729;54.906;73.316;2022-08-14T07:03:07;1.00;0.00;0.00
65973;PMS5003;52729;54.906;73.316;2022-08-14T07:06:26;1.00;0.00;0.00
65973;PMS5003;52729;54.906;73.316;2022-08-14T07:09:27;1.00;1.00;0.00
65973;PMS5003;52729;54.906;73.316;2022-08-14T07:12:28;0.25;0.00;0.00
65973;PMS5003;52729;54.906;73.316;2022-08-14T07:15:35;0.00;0.00;0.00
65973;PMS5003;52729;54.906;73.316;2022-08-14T07:18:37;0.00;0.00;0.00
65973;PMS5003;52729;54.906;73.316;2022-08-14T07:21:39;0.00;0.00;0.00
65973;PMS5003;52729;54.906;73.316;2022-08-14T07:24:40;0.00;0.00;0.00
65973;PMS5003;52729;54.906;73.316;2022-08-14T07:27:41;0.00;0.00;0.00
65973;PMS5003;52729;54.906;73.316;2022-08-14T07:30:47;0.00;0.00;0.00
65973;PMS5003;52729;54.906;73.316;2022-08-14T07:33:49;0.00;0.00;0.00
65973;PMS5003;52729;54.906;73.316;2022-08-14T07:36:50;0.00;0.00;0.00
65973;PMS5003;52729;54.906;73.316;2022-08-14T07:39:57;0.00;0.00;0.00
65973;PMS5003;52729;54.906;73.316;2022-08-14T07:43:03;0.00;0.00;0.00
65973;PMS5003;52729;54.906;73.316;2022-08-14T07:46:09;0.00;0.00;0.00
65973;PMS5003;52729;54.906;73.316;2022-08-14T07:49:15;0.25;0.25;0.00
65973;PMS5003;52729;54.906;73.316;2022-08-14T07:52:16;2.00;1.00;0.00
65973;PMS5003;52729;54.906;73.316;2022-08-14T07:55:28;0.00;0.00;0.00
65973;PMS5003;52729;54.906;73.316;2022-08-14T07:58:29;0.00;0.00;0.00
65973;PMS5003;52729;54.906;73.316;2022-08-14T08:01:30;0.00;0.00;0.00
65973;PMS5003;52729;54.906;73.316;2022-08-14T08:04:33;1.50;1.50;0.00
65973;PMS5003;52729;54.906;73.316;2022-08-14T08:07:47;0.00;0.00;0.00
65973;PMS5003;52729;54.906;73.316;2022-08-14T08:10:48;0.00;0.00;0.00
65973;PMS5003;52729;54.906;73.316;2022-08-14T08:13:49;0.00;0.00;0.00
65973;PMS5003;52729;54.906;73.316;2022-08-14T08:17:01;0.00;0.00;0.00
65973;PMS5003;52729;54.906;73.316;2022-08-14T08:20:13;0.00;0.00;0.00
65973;PMS5003;52729;54.906;73.316;2022-08-14T08:23:15;0.00;0.00;0.00
65973;PMS5003;52729;54.906;73.316;2022-08-14T08:26:17;0.00;0.00;0.00
65973;PMS5003;52729;54.906;73.316;2022-08-14T08:29:18;0.00;0.00;0.00
65973;PMS5003;52729;54.906;73.316;2022-08-14T08:32:25;0.00;0.00;0.00
65973;PMS5003;52729;54.906;73.316;2022-08-14T08:35:33;0.00;0.00;0.00
65973;PMS5003;52729;54.906;73.316;2022-08-14T08:38:44;0.00;0.00;0.00
65973;PMS5003;52729;54.906;73.316;2022-08-14T08:41:46;0.00;0.00;0.00
65973;PMS5003;52729;54.906;73.316;2022-08-14T08:44:52;0.00;0.00;0.00
65973;PMS5003;52729;54.906;73.316;2022-08-14T08:47:53;0.00;0.00;0.00
65973;PMS5003;52729;54.906;73.316;2022-08-14T08:50:55;0.00;0.00;0.00
65973;PMS5003;52729;54.906;73.316;2022-08-14T08:53:58;0.00;0.00;0.00
65973;PMS5003;52729;54.906;73.316;2022-08-14T08:57:00;0.00;0.00;0.00
65973;PMS5003;52729;54.906;73.316;2022-08-14T09:00:13;0.00;0.00;0.00
65973;PMS5003;52729;54.906;73.316;2022-08-14T09:03:20;0.00;0.00;0.00
65973;PMS5003;52729;54.906;73.316;2022-08-14T09:06:22;0.00;0.00;0.00
65973;PMS5003;52729;54.906;73.316;2022-08-14T09:09:27;0.00;0.00;0.00
65973;PMS5003;52729;54.906;73.316;2022-08-14T09:12:33;0.00;0.00;0.00
65973;PMS5003;52729;54.906;73.316;2022-08-14T09:15:34;0.00;0.00;0.00
65973;PMS5003;52729;54.906;73.316;2022-08-14T09:18:46;0.00;0.00;0.00
65973;PMS5003;52729;54.906;73.316;2022-08-14T09:21:48;0.00;0.00;0.00
65973;PMS5003;52729;54.906;73.316;2022-08-14T09:24:58;0.00;0.00;0.00
65973;PMS5003;52729;54.906;73.316;2022-08-14T09:28:00;0.00;0.00;0.00
65973;PMS5003;52729;54.906;73.316;2022-08-14T09:31:12;0.00;0.00;0.00
65973;PMS5003;52729;54.906;73.316;2022-08-14T09:40:29;0.00;0.00;0.00
65973;PMS5003;52729;54.906;73.316;2022-08-14T09:46:52;0.00;0.00;0.00
65973;PMS5003;52729;54.906;73.316;2022-08-14T09:50:05;0.00;0.00;0.00
65973;PMS5003;52729;54.906;73.316;2022-08-14T09:53:41;0.00;0.00;0.00
65973;PMS5003;52729;54.906;73.316;2022-08-14T09:56:53;0.00;0.00;0.00
65973;PMS5003;52729;54.906;73.316;2022-08-14T09:59:54;0.00;0.00;0.00
65973;PMS5003;52729;54.906;73.316;2022-08-14T10:02:56;0.00;0.00;0.00
65973;PMS5003;52729;54.906;73.316;2022-08-14T10:06:06;0.00;0.00;0.00
65973;PMS5003;52729;54.906;73.316;2022-08-14T10:09:15;0.00;0.00;0.00
65973;PMS5003;52729;54.906;73.316;2022-08-14T10:12:16;0.00;0.00;0.00
65973;PMS5003;52729;54.906;73.316;2022-08-14T10:15:24;0.00;0.00;0.00
65973;PMS5003;52729;54.906;73.316;2022-08-14T10:18:35;0.00;0.00;0.00
65973;PMS5003;52729;54.906;73.316;2022-08-14T10:21:37;0.00;0.00;0.00
65973;PMS5003;52729;54.906;73.316;2022-08-14T10:24:39;0.00;0.00;0.00
65973;PMS5003;52729;54.906;73.316;2022-08-14T10:27:41;0.00;0.00;0.00
65973;PMS5003;52729;54.906;73.316;2022-08-14T10:30:46;0.00;0.00;0.00
65973;PMS5003;52729;54.906;73.316;2022-08-14T10:34:05;0.00;0.00;0.00
65973;PMS5003;52729;54.906;73.316;2022-08-14T10:37:13;0.00;0.00;0.00
65973;PMS5003;52729;54.906;73.316;2022-08-14T10:40:27;0.00;0.00;0.00
65973;PMS5003;52729;54.906;73.316;2022-08-14T10:43:34;0.00;0.00;0.00
65973;PMS5003;52729;54.906;73.316;2022-08-14T10:46:38;0.00;0.00;0.00
65973;PMS5003;52729;54.906;73.316;2022-08-14T10:49:55;0.00;0.00;0.00
65973;PMS5003;52729;54.906;73.316;2022-08-14T10:52:58;0.00;0.00;0.00
65973;PMS5003;52729;54.906;73.316;2022-08-14T10:56:00;0.00;0.00;0.00
65973;PMS5003;52729;54.906;73.316;2022-08-14T10:59:04;0.00;0.00;0.00
65973;PMS5003;52729;54.906;73.316;2022-08-14T11:02:19;0.00;0.00;0.00
65973;PMS5003;52729;54.906;73.316;2022-08-14T11:05:36;0.00;0.00;0.00
65973;PMS5003;52729;54.906;73.316;2022-08-14T11:08:39;0.00;0.00;0.00
65973;PMS5003;52729;54.906;73.316;2022-08-14T11:11:42;0.00;0.00;0.00
65973;PMS5003;52729;54.906;73.316;2022-08-14T11:14:53;0.00;0.00;0.00
65973;PMS5003;52729;54.906;73.316;2022-08-14T11:17:55;0.00;0.00;0.00
65973;PMS5003;52729;54.906;73.316;2022-08-14T11:20:57;0.00;0.00;0.00
65973;PMS5003;52729;54.906;73.316;2022-08-14T11:23:59;1.00;0.00;0.00
65973;PMS5003;52729;54.906;73.316;2022-08-14T11:27:01;0.00;0.00;0.00
65973;PMS5003;52729;54.906;73.316;2022-08-14T11:30:04;0.50;0.00;0.00
65973;PMS5003;52729;54.906;73.316;2022-08-14T11:33:06;0.00;0.00;0.00
65973;PMS5003;52729;54.906;73.316;2022-08-14T11:36:09;0.00;0.00;0.00
65973;PMS5003;52729;54.906;73.316;2022-08-14T11:39:17;0.00;0.00;0.00
65973;PMS5003;52729;54.906;73.316;2022-08-14T11:42:22;1.25;0.50;0.00
65973;PMS5003;52729;54.906;73.316;2022-08-14T11:45:24;0.00;0.00;0.00
65973;PMS5003;52729;54.906;73.316;2022-08-14T11:48:30;0.00;0.00;0.00
65973;PMS5003;52729;54.906;73.316;2022-08-14T11:51:32;0.00;0.00;0.00
65973;PMS5003;52729;54.906;73.316;2022-08-14T11:54:34;0.00;0.00;0.00
65973;PMS5003;52729;54.906;73.316;2022-08-14T11:57:35;0.00;0.00;0.00
65973;PMS5003;52729;54.906;73.316;2022-08-14T12:00:49;0.00;0.00;0.00
65973;PMS5003;52729;54.906;73.316;2022-08-14T12:03:50;0.00;0.00;0.00
65973;PMS5003;52729;54.906;73.316;2022-08-14T12:06:54;0.50;0.00;0.00
65973;PMS5003;52729;54.906;73.316;2022-08-14T12:09:55;0.00;0.00;0.00
65973;PMS5003;52729;54.906;73.316;2022-08-14T12:13:15;0.00;0.00;0.00
65973;PMS5003;52729;54.906;73.316;2022-08-14T12:16:17;0.75;0.00;0.00
65973;PMS5003;52729;54.906;73.316;2022-08-14T12:19:21;1.50;0.00;0.00
65973;PMS5003;52729;54.906;73.316;2022-08-14T12:22:32;2.00;1.00;0.00
65973;PMS5003;52729;54.906;73.316;2022-08-14T12:25:34;1.00;0.00;0.00
65973;PMS5003;52729;54.906;73.316;2022-08-14T12:28:35;1.00;0.00;0.00
65973;PMS5003;52729;54.906;73.316;2022-08-14T12:31:38;0.25;0.00;0.00
65973;PMS5003;52729;54.906;73.316;2022-08-14T12:34:41;0.00;0.00;0.00
65973;PMS5003;52729;54.906;73.316;2022-08-14T12:37:49;1.00;1.00;0.00
65973;PMS5003;52729;54.906;73.316;2022-08-14T12:40:53;2.75;2.75;0.00
65973;PMS5003;52729;54.906;73.316;2022-08-14T12:44:05;1.00;1.00;0.00
65973;PMS5003;52729;54.906;73.316;2022-08-14T12:47:08;1.25;1.00;0.00
65973;PMS5003;52729;54.906;73.316;2022-08-14T12:50:11;1.00;1.00;0.00
65973;PMS5003;52729;54.906;73.316;2022-08-14T12:53:13;2.00;1.00;0.00
65973;PMS5003;52729;54.906;73.316;2022-08-14T12:56:17;1.25;1.25;0.00
65973;PMS5003;52729;54.906;73.316;2022-08-14T12:59:20;0.00;0.00;0.00
65973;PMS5003;52729;54.906;73.316;2022-08-14T13:02:28;0.00;0.00;0.00
65973;PMS5003;52729;54.906;73.316;2022-08-14T13:05:36;0.25;0.00;0.00
65973;PMS5003;52729;54.906;73.316;2022-08-14T13:08:37;0.00;0.00;0.00
65973;PMS5003;52729;54.906;73.316;2022-08-14T13:11:49;0.00;0.00;0.00
65973;PMS5003;52729;54.906;73.316;2022-08-14T13:14:51;0.00;0.00;0.00
65973;PMS5003;52729;54.906;73.316;2022-08-14T13:17:53;0.00;0.00;0.00
65973;PMS5003;52729;54.906;73.316;2022-08-14T13:21:01;0.00;0.00;0.00
65973;PMS5003;52729;54.906;73.316;2022-08-14T13:24:02;0.00;0.00;0.00
65973;PMS5003;52729;54.906;73.316;2022-08-14T13:27:05;0.00;0.00;0.00
65973;PMS5003;52729;54.906;73.316;2022-08-14T13:30:07;0.00;0.00;0.00
65973;PMS5003;52729;54.906;73.316;2022-08-14T13:33:10;0.00;0.00;0.00
65973;PMS5003;52729;54.906;73.316;2022-08-14T13:36:12;0.00;0.00;0.00
65973;PMS5003;52729;54.906;73.316;2022-08-14T13:39:15;0.00;0.00;0.00
65973;PMS5003;52729;54.906;73.316;2022-08-14T13:42:27;0.00;0.00;0.00
65973;PMS5003;52729;54.906;73.316;2022-08-14T13:45:28;0.00;0.00;0.00
65973;PMS5003;52729;54.906;73.316;2022-08-14T13:48:39;0.00;0.00;0.00
65973;PMS5003;52729;54.906;73.316;2022-08-14T13:51:47;0.00;0.00;0.00
65973;PMS5003;52729;54.906;73.316;2022-08-14T13:54:57;0.00;0.00;0.00
65973;PMS5003;52729;54.906;73.316;2022-08-14T13:57:59;0.00;0.00;0.00
65973;PMS5003;52729;54.906;73.316;2022-08-14T14:01:11;0.00;0.00;0.00
65973;PMS5003;52729;54.906;73.316;2022-08-14T14:04:15;0.00;0.00;0.00
65973;PMS5003;52729;54.906;73.316;2022-08-14T14:07:19;0.00;0.00;0.00
65973;PMS5003;52729;54.906;73.316;2022-08-14T14:10:27;0.00;0.00;0.00
65973;PMS5003;52729;54.906;73.316;2022-08-14T14:13:31;0.50;0.00;0.00
65973;PMS5003;52729;54.906;73.316;2022-08-14T14:16:32;0.00;0.00;0.00
65973;PMS5003;52729;54.906;73.316;2022-08-14T14:19:42;0.00;0.00;0.00
65973;PMS5003;52729;54.906;73.316;2022-08-14T14:22:50;0.00;0.00;0.00
65973;PMS5003;52729;54.906;73.316;2022-08-14T14:25:52;0.00;0.00;0.00
65973;PMS5003;52729;54.906;73.316;2022-08-14T14:28:54;0.00;0.00;0.00
65973;PMS5003;52729;54.906;73.316;2022-08-14T14:31:57;2.00;1.00;0.00
65973;PMS5003;52729;54.906;73.316;2022-08-14T14:35:00;1.00;1.00;0.00
65973;PMS5003;52729;54.906;73.316;2022-08-14T14:38:02;0.00;0.00;0.00
65973;PMS5003;52729;54.906;73.316;2022-08-14T14:41:04;0.00;0.00;0.00
65973;PMS5003;52729;54.906;73.316;2022-08-14T14:44:07;0.00;0.00;0.00
65973;PMS5003;52729;54.906;73.316;2022-08-14T14:47:09;2.00;0.00;0.00
65973;PMS5003;52729;54.906;73.316;2022-08-14T14:50:10;1.00;0.00;0.00
65973;PMS5003;52729;54.906;73.316;2022-08-14T14:53:12;0.75;0.00;0.00
65973;PMS5003;52729;54.906;73.316;2022-08-14T14:56:14;0.00;0.00;0.00
65973;PMS5003;52729;54.906;73.316;2022-08-14T14:59:20;0.00;0.00;0.00
65973;PMS5003;52729;54.906;73.316;2022-08-14T15:02:32;0.00;0.00;0.00
65973;PMS5003;52729;54.906;73.316;2022-08-14T15:05:38;1.00;0.00;0.00
65973;PMS5003;52729;54.906;73.316;2022-08-14T15:08:41;0.00;0.00;0.00
65973;PMS5003;52729;54.906;73.316;2022-08-14T15:11:53;2.00;1.00;0.00
65973;PMS5003;52729;54.906;73.316;2022-08-14T15:14:54;2.00;2.00;0.00
65973;PMS5003;52729;54.906;73.316;2022-08-14T15:17:56;3.00;2.75;0.00
65973;PMS5003;52729;54.906;73.316;2022-08-14T15:20:58;4.00;4.00;0.00
65973;PMS5003;52729;54.906;73.316;2022-08-14T15:24:11;2.25;2.25;0.00
65973;PMS5003;52729;54.906;73.316;2022-08-14T15:27:12;4.00;3.00;0.00
65973;PMS5003;52729;54.906;73.316;2022-08-14T15:30:16;6.00;4.00;0.00
65973;PMS5003;52729;54.906;73.316;2022-08-14T15:33:17;6.00;4.00;0.00
65973;PMS5003;52729;54.906;73.316;2022-08-14T15:36:48;7.50;6.00;0.25
65973;PMS5003;52729;54.906;73.316;2022-08-14T15:39:58;7.00;7.00;1.00
65973;PMS5003;52729;54.906;73.316;2022-08-14T15:43:00;5.00;5.00;2.00
65973;PMS5003;52729;54.906;73.316;2022-08-14T15:46:02;5.50;5.50;2.00
65973;PMS5003;52729;54.906;73.316;2022-08-14T15:49:04;7.25;7.00;2.00
65973;PMS5003;52729;54.906;73.316;2022-08-14T15:52:07;8.25;7.25;3.75
65973;PMS5003;52729;54.906;73.316;2022-08-14T15:55:09;6.25;5.00;3.00
65973;PMS5003;52729;54.906;73.316;2022-08-14T15:58:12;6.75;5.00;2.00
65973;PMS5003;52729;54.906;73.316;2022-08-14T16:01:13;5.00;3.25;2.00
65973;PMS5003;52729;54.906;73.316;2022-08-14T16:04:25;7.25;6.50;3.00
65973;PMS5003;52729;54.906;73.316;2022-08-14T16:07:27;10.75;8.50;4.50
65973;PMS5003;52729;54.906;73.316;2022-08-14T16:10:28;7.25;7.00;3.00
65973;PMS5003;52729;54.906;73.316;2022-08-14T16:13:30;7.00;7.00;3.00
65973;PMS5003;52729;54.906;73.316;2022-08-14T16:16:36;5.75;4.75;3.00
65973;PMS5003;52729;54.906;73.316;2022-08-14T16:19:40;4.00;3.00;0.00
65973;PMS5003;52729;54.906;73.316;2022-08-14T16:22:42;6.50;5.75;1.00
65973;PMS5003;52729;54.906;73.316;2022-08-14T16:25:44;11.00;9.00;2.25
65973;PMS5003;52729;54.906;73.316;2022-08-14T16:28:53;11.00;9.75;4.00
65973;PMS5003;52729;54.906;73.316;2022-08-14T16:32:05;15.00;13.00;6.50
65973;PMS5003;52729;54.906;73.316;2022-08-14T16:35:09;15.25;12.00;6.00
65973;PMS5003;52729;54.906;73.316;2022-08-14T16:38:15;14.50;12.50;5.00
65973;PMS5003;52729;54.906;73.316;2022-08-14T16:41:16;11.00;8.50;4.00
65973;PMS5003;52729;54.906;73.316;2022-08-14T16:44:20;7.00;7.00;3.00
65973;PMS5003;52729;54.906;73.316;2022-08-14T16:47:21;5.00;5.00;2.00
65973;PMS5003;52729;54.906;73.316;2022-08-14T16:50:22;4.00;3.75;1.00
65973;PMS5003;52729;54.906;73.316;2022-08-14T16:53:24;4.50;4.00;0.00
65973;PMS5003;52729;54.906;73.316;2022-08-14T16:56:30;3.50;2.50;0.00
65973;PMS5003;52729;54.906;73.316;2022-08-14T16:59:36;3.00;3.00;0.00
65973;PMS5003;52729;54.906;73.316;2022-08-14T17:02:38;2.25;2.00;0.00
65973;PMS5003;52729;54.906;73.316;2022-08-14T17:05:43;3.00;2.50;0.00
65973;PMS5003;52729;54.906;73.316;2022-08-14T17:08:48;3.00;2.75;0.00
65973;PMS5003;52729;54.906;73.316;2022-08-14T17:11:53;2.00;2.00;0.00
65973;PMS5003;52729;54.906;73.316;2022-08-14T17:15:07;2.50;2.50;0.00
65973;PMS5003;52729;54.906;73.316;2022-08-14T17:18:10;0.00;0.00;0.00
65973;PMS5003;52729;54.906;73.316;2022-08-14T17:24:24;0.00;0.00;0.00
65973;PMS5003;52729;54.906;73.316;2022-08-14T17:27:25;0.00;0.00;0.00
65973;PMS5003;52729;54.906;73.316;2022-08-14T17:30:26;3.00;1.75;0.00
65973;PMS5003;52729;54.906;73.316;2022-08-14T17:33:47;0.25;0.00;0.00
65973;PMS5003;52729;54.906;73.316;2022-08-14T17:36:49;0.50;0.00;0.00
65973;PMS5003;52729;54.906;73.316;2022-08-14T17:40:01;0.00;0.00;0.00
65973;PMS5003;52729;54.906;73.316;2022-08-14T17:43:03;0.00;0.00;0.00
65973;PMS5003;52729;54.906;73.316;2022-08-14T17:46:04;0.00;0.00;0.00
65973;PMS5003;52729;54.906;73.316;2022-08-14T17:49:07;0.00;0.00;0.00
65973;PMS5003;52729;54.906;73.316;2022-08-14T17:52:10;0.00;0.00;0.00
65973;PMS5003;52729;54.906;73.316;2022-08-14T17:55:12;0.00;0.00;0.00
65973;PMS5003;52729;54.906;73.316;2022-08-14T17:58:15;0.00;0.00;0.00